createdAt,value
2022-08-03T00:02:42.517Z,97529.16
2022-08-03T00:12:45.464Z,97530.00
2022-08-03T00:22:49.089Z,97527.50
2022-08-03T00:32:52.868Z,97523.53
2022-08-03T00:42:59.576Z,97526.72
2022-08-03T00:53:18.568Z,97516.06
2022-08-03T01:03:21.997Z,97513.94
2022-08-03T01:14:01.946Z,97517.88
2022-08-03T01:24:56.469Z,97510.03
2022-08-03T01:35:11.850Z,97513.66
2022-08-03T01:45:19.071Z,97507.25
2022-08-03T01:55:24.211Z,97507.00
2022-08-03T02:05:28.387Z,97486.56
2022-08-03T02:15:34.309Z,97488.03
2022-08-03T02:25:53.586Z,97487.03
2022-08-03T02:35:58.286Z,97481.56
2022-08-03T02:46:01.264Z,97492.03
2022-08-03T02:56:05.632Z,97481.69
2022-08-03T03:06:09.559Z,97493.41
2022-08-03T03:16:14.193Z,97501.88
2022-08-03T03:26:17.898Z,97497.03
2022-08-03T03:36:20.761Z,97503.06
2022-08-03T03:46:23.707Z,97505.00
2022-08-03T03:56:27.449Z,97512.50
2022-08-03T04:06:48.638Z,97518.41
2022-08-03T04:16:57.094Z,97527.97
2022-08-03T04:27:03.002Z,97536.38
2022-08-03T04:37:12.950Z,97538.03
2022-08-03T04:47:16.832Z,97538.47
2022-08-03T04:57:23.110Z,97529.00
2022-08-03T05:07:26.274Z,97524.09
2022-08-03T05:17:38.934Z,97514.53
2022-08-03T05:27:42.085Z,97522.88
2022-08-03T05:37:54.690Z,97533.31
2022-08-03T05:48:03.886Z,97536.25
2022-08-03T05:58:07.088Z,97530.88
2022-08-03T06:08:09.968Z,97537.38
2022-08-03T06:21:59.006Z,97542.63
2022-08-03T06:32:02.575Z,97532.16
2022-08-03T06:42:05.790Z,97531.25
2022-08-03T06:52:12.716Z,97532.47
2022-08-03T07:02:35.414Z,97533.16
2022-08-03T07:12:38.983Z,97523.00
2022-08-03T07:22:59.081Z,97527.16
2022-08-03T07:33:01.798Z,97526.09
2022-08-03T07:43:05.430Z,97508.75
2022-08-03T07:53:08.308Z,97503.84
2022-08-03T08:03:11.869Z,97505.88
2022-08-03T08:13:15.071Z,97506.31
2022-08-03T08:23:42.531Z,97509.00
2022-08-03T08:34:03.638Z,97500.91
2022-08-03T08:44:08.576Z,97490.25
2022-08-03T08:54:11.924Z,97481.16
2022-08-03T09:04:14.741Z,97471.31
2022-08-03T09:14:36.648Z,97474.22
2022-08-03T09:25:22.613Z,97467.41
2022-08-03T09:35:51.659Z,97464.09
2022-08-03T09:45:51.217Z,97462.81
2022-08-03T09:56:33.433Z,97476.59
2022-08-03T10:06:22.694Z,97469.06
2022-08-03T10:16:38.826Z,97475.44
2022-08-03T10:26:49.489Z,97473.81
2022-08-03T10:36:57.371Z,97455.00
2022-08-03T10:47:01.184Z,97454.22
2022-08-03T10:57:22.429Z,97449.31
2022-08-03T11:07:26.120Z,97438.59
2022-08-03T11:17:29.076Z,97433.72
2022-08-03T11:27:35.389Z,97434.78
2022-08-03T11:38:01.436Z,97422.97
2022-08-03T11:48:16.403Z,97424.88
2022-08-03T11:59:00.956Z,97425.88
2022-08-03T12:08:44.737Z,97417.72
2022-08-03T12:19:08.473Z,97423.13
2022-08-03T12:29:22.546Z,97413.00
2022-08-03T12:39:27.842Z,97416.41
2022-08-03T12:49:45.678Z,97415.06
2022-08-03T12:59:52.878Z,97401.09
2022-08-03T13:09:57.018Z,97408.06
2022-08-03T13:19:59.665Z,97413.94
2022-08-03T13:30:02.549Z,97413.34
2022-08-03T13:40:07.346Z,97411.56
2022-08-03T13:50:10.012Z,97403.25
2022-08-03T14:00:13.209Z,97401.28
2022-08-03T14:10:29.481Z,97402.47
2022-08-03T14:20:38.125Z,97393.09
2022-08-03T14:30:49.633Z,97390.47
2022-08-03T14:40:53.413Z,97384.06
2022-08-03T14:50:57.019Z,97360.66
2022-08-03T15:00:59.795Z,97359.56
2022-08-03T15:11:02.571Z,97350.13
2022-08-03T15:21:07.538Z,97348.63
2022-08-03T15:31:24.376Z,97333.56
2022-08-03T15:41:27.016Z,97332.22
2022-08-03T15:51:30.184Z,97333.50
2022-08-03T16:01:33.231Z,97340.03
2022-08-03T16:11:36.363Z,97332.44
2022-08-03T16:21:48.895Z,97328.50
2022-08-03T16:31:53.207Z,97322.88
2022-08-03T16:42:01.022Z,97320.97
2022-08-03T16:52:07.128Z,97329.50
2022-08-03T17:02:26.166Z,97344.31
2022-08-03T17:12:29.723Z,97345.56
2022-08-03T17:22:37.891Z,97343.72
2022-08-03T17:32:52.706Z,97348.91
2022-08-03T17:43:01.226Z,97360.69
2022-08-03T17:53:29.583Z,97366.31
2022-08-03T18:03:57.889Z,97379.31
2022-08-03T18:14:19.934Z,97383.44
2022-08-03T18:24:29.172Z,97382.63
2022-08-03T18:34:34.853Z,97386.88
2022-08-03T18:44:53.849Z,97398.25
2022-08-03T18:55:20.683Z,97395.50
2022-08-03T19:05:56.227Z,97402.59
2022-08-03T19:15:57.289Z,97411.47
2022-08-03T19:26:00.870Z,97402.13
2022-08-03T19:36:07.334Z,97409.09
2022-08-03T19:46:14.220Z,97400.22
2022-08-03T19:56:23.768Z,97409.59
2022-08-03T20:10:12.594Z,97413.59
2022-08-03T20:20:32.968Z,97404.66
2022-08-03T20:30:36.500Z,97409.03
2022-08-03T20:40:40.080Z,97402.66
2022-08-03T20:50:44.141Z,97401.22
2022-08-03T21:00:49.141Z,97408.53
2022-08-03T21:10:57.737Z,97414.66
2022-08-03T21:21:03.812Z,97414.59
2022-08-03T21:31:07.140Z,97421.75
2022-08-03T21:41:10.384Z,97430.81
2022-08-03T21:51:16.936Z,97414.25
2022-08-03T22:10:12.006Z,97433.66
2022-08-03T22:20:15.838Z,97431.28
2022-08-03T22:39:25.521Z,97429.59
2022-08-03T22:49:29.691Z,97435.47
2022-08-03T22:59:41.330Z,97432.22
2022-08-03T23:09:47.496Z,97434.84
2022-08-03T23:19:54.128Z,97442.63
2022-08-03T23:29:58.919Z,97438.25
2022-08-03T23:40:03.687Z,97432.44
2022-08-03T23:50:06.856Z,97433.09
